Time,TemperatureF,DewpointF,PressureIn,WindDirection,WindDirectionDegrees,WindSpeedMPH,WindSpeedGustMPH,Humidity,HourlyPrecipIn,Conditions,Clouds,dailyrainin,SoftwareType,DateUTC
2013-04-22 00:01:00,68.0,66.5,30.07,NE,51,0.0,0.0,95,0.00,,,0.44,Wunderground v.1.15,2013-04-22 04:01:00,
2013-04-22 00:03:00,68.0,66.5,30.07,NE,41,1.0,1.0,95,0.00,,,0.00,Wunderground v.1.15,2013-04-22 04:03:00,
2013-04-22 00:05:00,68.0,66.5,30.07,NE,39,1.0,1.0,95,0.00,,,0.00,Wunderground v.1.15,2013-04-22 04:05:00,
2013-04-22 00:11:00,68.0,66.8,30.06,NE,40,2.0,2.0,96,0.00,,,0.00,Wunderground v.1.15,2013-04-22 04:11:00,
2013-04-22 00:16:00,68.0,66.5,30.06,NE,55,1.0,2.0,95,0.00,,,0.00,Wunderground v.1.15,2013-04-22 04:16:00,
2013-04-22 00:22:00,68.0,66.8,30.05,ENE,61,0.0,1.0,96,0.00,,,0.00,Wunderground v.1.15,2013-04-22 04:22:00,
2013-04-22 00:27:00,68.0,66.8,30.05,ENE,70,0.0,1.0,96,0.00,,,0.00,Wunderground v.1.15,2013-04-22 04:27:00,
2013-04-22 00:33:00,68.0,66.8,30.05,East,84,0.0,2.0,96,0.00,,,0.00,Wunderground v.1.15,2013-04-22 04:33:00,
2013-04-22 00:39:00,68.0,66.8,30.05,ESE,123,0.0,2.0,96,0.00,,,0.00,Wunderground v.1.15,2013-04-22 04:39:00,
2013-04-22 00:45:00,68.1,66.9,30.05,ENE,63,0.0,1.0,96,0.00,,,0.00,Wunderground v.1.15,2013-04-22 04:45:00,
2013-04-22 00:51:00,68.2,67.0,30.05,NE,53,0.0,1.0,96,0.00,,,0.00,Wunderground v.1.15,2013-04-22 04:51:00,
2013-04-22 00:57:00,68.2,67.0,30.05,East,93,0.0,1.0,96,0.00,,,0.00,Wunderground v.1.15,2013-04-22 04:57:00,
2013-04-22 01:03:00,68.3,67.1,30.06,NE,41,0.0,1.0,96,0.00,,,0.00,Wunderground v.1.15,2013-04-22 05:03:00,
2013-04-22 01:09:00,68.4,67.2,30.06,NE,54,0.0,2.0,96,0.00,,,0.00,Wunderground v.1.15,2013-04-22 05:09:00,
2013-04-22 01:15:00,68.4,67.2,30.07,ENE,58,0.0,1.0,96,0.00,,,0.01,Wunderground v.1.15,2013-04-22 05:15:00,
2013-04-22 01:21:00,68.4,67.2,30.07,ENE,72,0.0,1.0,96,0.00,,,0.01,Wunderground v.1.15,2013-04-22 05:21:00,
2013-04-22 01:27:00,68.5,67.3,30.07,North,9,0.0,1.0,96,0.00,,,0.01,Wunderground v.1.15,2013-04-22 05:27:00,
2013-04-22 01:33:00,68.5,67.3,30.07,NE,39,1.0,2.0,96,0.00,,,0.01,Wunderground v.1.15,2013-04-22 05:33:00,
2013-04-22 01:39:00,68.5,67.3,30.08,NNE,32,0.0,2.0,96,0.00,,,0.01,Wunderground v.1.15,2013-04-22 05:39:00,
2013-04-22 01:44:00,68.5,67.3,30.08,NE,45,1.0,1.0,96,0.00,,,0.01,Wunderground v.1.15,2013-04-22 05:44:00,
2013-04-22 01:50:00,68.6,67.4,30.07,NE,56,0.0,1.0,96,0.00,,,0.01,Wunderground v.1.15,2013-04-22 05:50:00,
2013-04-22 01:56:00,68.4,67.2,30.07,ENE,61,3.0,3.0,96,0.00,,,0.01,Wunderground v.1.15,2013-04-22 05:56:00,
2013-04-22 02:01:00,68.1,66.9,30.07,NE,50,2.0,2.0,96,0.00,,,0.02,Wunderground v.1.15,2013-04-22 06:01:00,
2013-04-22 02:06:00,67.8,66.6,30.06,NE,43,2.0,5.0,96,0.00,,,0.02,Wunderground v.1.15,2013-04-22 06:06:00,
2013-04-22 02:11:00,67.7,66.5,30.06,NE,39,1.0,2.0,96,0.00,,,0.02,Wunderground v.1.15,2013-04-22 06:11:00,
2013-04-22 02:16:00,67.6,66.4,30.06,North,5,0.0,2.0,96,0.49,,,0.08,Wunderground v.1.15,2013-04-22 06:16:00,
2013-04-22 02:21:00,67.5,66.3,30.06,WSW,258,0.0,1.0,96,0.36,,,0.11,Wunderground v.1.15,2013-04-22 06:21:00,
2013-04-22 02:26:00,67.5,66.3,30.05,NE,51,2.0,4.0,96,1.30,,,0.18,Wunderground v.1.15,2013-04-22 06:26:00,
2013-04-22 02:31:00,67.4,66.2,30.05,NE,41,1.0,2.0,96,0.53,,,0.25,Wunderground v.1.15,2013-04-22 06:31:00,
2013-04-22 02:36:00,67.3,66.4,30.05,NE,51,2.0,4.0,97,0.73,,,0.29,Wunderground v.1.15,2013-04-22 06:36:00,
2013-04-22 02:41:00,67.3,66.4,30.04,NE,38,1.0,1.0,97,0.81,,,0.36,Wunderground v.1.15,2013-04-22 06:41:00,
2013-04-22 02:46:00,67.3,66.4,30.04,SSE,150,0.0,4.0,97,0.34,,,0.39,Wunderground v.1.15,2013-04-22 06:46:00,
2013-04-22 02:51:00,67.2,66.3,30.04,NE,55,0.0,4.0,97,0.22,,,0.41,Wunderground v.1.15,2013-04-22 06:51:00,
2013-04-22 02:56:00,67.2,66.3,30.05,NNE,27,0.0,4.0,97,0.18,,,0.42,Wunderground v.1.15,2013-04-22 06:56:00,
2013-04-22 03:01:00,67.2,66.3,30.04,NE,52,2.0,2.0,97,0.07,,,0.42,Wunderground v.1.15,2013-04-22 07:01:00,
2013-04-22 03:06:00,67.2,66.3,30.04,NE,49,4.0,4.0,97,0.04,,,0.42,Wunderground v.1.15,2013-04-22 07:06:00,
2013-04-22 03:11:00,67.2,66.3,30.04,ENE,70,2.0,4.0,97,0.04,,,0.43,Wunderground v.1.15,2013-04-22 07:11:00,
2013-04-22 03:16:00,67.2,66.3,30.04,North,7,0.0,4.0,97,0.04,,,0.43,Wunderground v.1.15,2013-04-22 07:16:00,
2013-04-22 03:21:00,67.3,66.4,30.04,NE,53,0.0,1.0,97,0.04,,,0.43,Wunderground v.1.15,2013-04-22 07:21:00,
2013-04-22 03:26:00,67.3,66.4,30.03,NNE,23,0.0,2.0,97,0.00,,,0.43,Wunderground v.1.15,2013-04-22 07:26:00,
2013-04-22 03:31:00,67.3,66.4,30.03,NNE,21,1.0,1.0,97,0.00,,,0.43,Wunderground v.1.15,2013-04-22 07:31:00,
2013-04-22 03:36:00,67.4,66.5,30.03,NE,34,0.0,1.0,97,0.00,,,0.43,Wunderground v.1.15,2013-04-22 07:36:00,
2013-04-22 03:41:00,67.4,66.5,30.03,NE,43,0.0,1.0,97,0.00,,,0.43,Wunderground v.1.15,2013-04-22 07:41:00,
2013-04-22 03:46:00,67.5,66.6,30.03,NE,44,2.0,2.0,97,0.00,,,0.43,Wunderground v.1.15,2013-04-22 07:46:00,
2013-04-22 03:51:00,67.6,66.7,30.02,NE,50,0.0,1.0,97,0.00,,,0.43,Wunderground v.1.15,2013-04-22 07:51:00,
2013-04-22 03:56:00,67.7,66.8,30.02,North,8,0.0,2.0,97,0.00,,,0.43,Wunderground v.1.15,2013-04-22 07:56:00,
2013-04-22 04:01:00,67.7,66.8,30.02,ENE,60,0.0,0.0,97,0.00,,,0.43,Wunderground v.1.15,2013-04-22 08:01:00,
2013-04-22 04:06:00,67.8,66.9,30.02,NE,49,0.0,2.0,97,0.00,,,0.43,Wunderground v.1.15,2013-04-22 08:06:00,
2013-04-22 04:11:00,67.8,67.2,30.02,SE,132,0.0,1.0,98,0.00,,,0.43,Wunderground v.1.15,2013-04-22 08:11:00,
2013-04-22 04:16:00,67.9,67.0,30.02,SE,132,0.0,1.0,97,0.00,,,0.43,Wunderground v.1.15,2013-04-22 08:16:00,
2013-04-22 04:21:00,67.9,67.3,30.02,SE,132,0.0,0.0,98,0.00,,,0.43,Wunderground v.1.15,2013-04-22 08:21:00,
2013-04-22 04:26:00,67.9,67.0,30.02,SE,132,0.0,0.0,97,0.00,,,0.43,Wunderground v.1.15,2013-04-22 08:26:00,
2013-04-22 04:31:00,67.9,67.3,30.01,SE,132,0.0,0.0,98,0.00,,,0.43,Wunderground v.1.15,2013-04-22 08:31:00,
2013-04-22 04:36:00,67.9,67.3,30.01,NE,39,1.0,1.0,98,0.00,,,0.43,Wunderground v.1.15,2013-04-22 08:36:00,
2013-04-22 04:41:00,67.9,67.3,30.01,NE,40,0.0,0.0,98,0.00,,,0.43,Wunderground v.1.15,2013-04-22 08:41:00,
2013-04-22 04:46:00,67.9,67.0,30.01,NE,40,0.0,0.0,97,0.00,,,0.43,Wunderground v.1.15,2013-04-22 08:46:00,
2013-04-22 04:51:00,67.8,66.9,30.01,NE,40,0.0,0.0,97,0.00,,,0.43,Wunderground v.1.15,2013-04-22 08:51:00,
2013-04-22 04:56:00,67.9,67.3,30.01,NE,52,0.0,2.0,98,0.00,,,0.43,Wunderground v.1.15,2013-04-22 08:56:00,
2013-04-22 05:01:00,67.9,67.3,30.01,NNE,20,2.0,2.0,98,0.00,,,0.43,Wunderground v.1.15,2013-04-22 09:01:00,
2013-04-22 05:06:00,67.8,67.2,30.00,NE,39,0.0,2.0,98,0.00,,,0.43,Wunderground v.1.15,2013-04-22 09:06:00,
2013-04-22 05:11:00,67.7,67.1,30.00,NE,39,0.0,0.0,98,0.00,,,0.43,Wunderground v.1.15,2013-04-22 09:11:00,
2013-04-22 05:16:00,67.7,67.1,30.00,NNE,28,1.0,3.0,98,0.00,,,0.43,Wunderground v.1.15,2013-04-22 09:16:00,
2013-04-22 05:21:00,67.7,67.1,30.00,NE,55,0.0,0.0,98,0.00,,,0.43,Wunderground v.1.15,2013-04-22 09:21:00,
2013-04-22 05:26:00,67.5,66.9,30.00,NE,51,1.0,2.0,98,0.00,,,0.43,Wunderground v.1.15,2013-04-22 09:26:00,
2013-04-22 05:31:00,67.5,66.9,30.00,NE,35,1.0,1.0,98,0.00,,,0.43,Wunderground v.1.15,2013-04-22 09:31:00,
2013-04-22 05:36:00,67.5,66.9,29.99,NE,56,1.0,3.0,98,0.00,,,0.43,Wunderground v.1.15,2013-04-22 09:36:00,
2013-04-22 05:41:00,67.4,66.8,29.99,ENE,68,0.0,1.0,98,0.00,,,0.43,Wunderground v.1.15,2013-04-22 09:41:00,
2013-04-22 05:46:00,67.3,66.7,29.99,NE,41,1.0,3.0,98,0.00,,,0.43,Wunderground v.1.15,2013-04-22 09:46:00,
2013-04-22 05:51:00,67.2,66.6,29.99,NNE,18,1.0,1.0,98,0.00,,,0.43,Wunderground v.1.15,2013-04-22 09:51:00,
2013-04-22 05:56:00,67.2,66.6,29.99,NNE,32,0.0,4.0,98,0.00,,,0.43,Wunderground v.1.15,2013-04-22 09:56:00,
2013-04-22 06:01:00,67.1,66.5,29.99,NE,44,1.0,2.0,98,0.00,,,0.43,Wunderground v.1.15,2013-04-22 10:01:00,
2013-04-22 06:06:00,67.1,66.5,29.99,NE,55,2.0,3.0,98,0.00,,,0.43,Wunderground v.1.15,2013-04-22 10:06:00,
2013-04-22 06:11:00,67.1,66.5,30.00,NE,46,3.0,3.0,98,0.00,,,0.43,Wunderground v.1.15,2013-04-22 10:11:00,
2013-04-22 06:16:00,67.1,66.5,30.00,NE,47,2.0,3.0,98,0.00,,,0.43,Wunderground v.1.15,2013-04-22 10:16:00,
2013-04-22 06:21:00,67.1,66.5,30.00,NE,42,0.0,2.0,98,0.00,,,0.43,Wunderground v.1.15,2013-04-22 10:21:00,
2013-04-22 06:26:00,67.0,66.4,30.00,ENE,60,0.0,3.0,98,0.00,,,0.43,Wunderground v.1.15,2013-04-22 10:26:00,
2013-04-22 06:31:00,67.0,66.4,30.00,ENE,60,0.0,1.0,98,0.00,,,0.43,Wunderground v.1.15,2013-04-22 10:31:00,
2013-04-22 06:36:00,66.9,66.3,30.00,NNE,25,1.0,1.0,98,0.00,,,0.43,Wunderground v.1.15,2013-04-22 10:36:00,
2013-04-22 06:41:00,66.9,66.3,30.00,NNE,13,0.0,2.0,98,0.00,,,0.43,Wunderground v.1.15,2013-04-22 10:41:00,
2013-04-22 06:46:00,66.9,66.3,30.00,NE,37,1.0,2.0,98,0.00,,,0.43,Wunderground v.1.15,2013-04-22 10:46:00,
2013-04-22 06:51:00,67.0,66.4,30.01,NNE,13,2.0,2.0,98,0.00,,,0.43,Wunderground v.1.15,2013-04-22 10:51:00,
2013-04-22 06:56:00,66.9,66.3,30.01,NE,48,2.0,4.0,98,0.00,,,0.43,Wunderground v.1.15,2013-04-22 10:56:00,
2013-04-22 07:01:00,66.9,66.3,30.01,NE,53,1.0,2.0,98,0.00,,,0.43,Wunderground v.1.15,2013-04-22 11:01:00,
2013-04-22 07:06:00,66.9,66.3,30.01,ENE,72,1.0,4.0,98,0.00,,,0.43,Wunderground v.1.15,2013-04-22 11:06:00,
2013-04-22 07:11:00,66.8,66.2,30.01,NE,38,3.0,4.0,98,0.00,,,0.43,Wunderground v.1.15,2013-04-22 11:11:00,
2013-04-22 07:16:00,66.8,66.2,30.02,NE,51,4.0,5.0,98,0.00,,,0.43,Wunderground v.1.15,2013-04-22 11:16:00,
2013-04-22 07:21:00,66.8,66.2,30.02,NE,55,2.0,3.0,98,0.00,,,0.43,Wunderground v.1.15,2013-04-22 11:21:00,
2013-04-22 07:26:00,66.8,66.2,30.02,North,6,0.0,3.0,98,0.00,,,0.43,Wunderground v.1.15,2013-04-22 11:26:00,
2013-04-22 07:31:00,66.9,66.3,30.02,NE,55,3.0,7.0,98,0.00,,,0.43,Wunderground v.1.15,2013-04-22 11:31:00,
2013-04-22 07:36:00,66.9,66.3,30.02,NNE,15,3.0,7.0,98,0.00,,,0.43,Wunderground v.1.15,2013-04-22 11:36:00,
2013-04-22 07:41:00,66.9,66.3,30.02,NE,55,2.0,6.0,98,0.00,,,0.43,Wunderground v.1.15,2013-04-22 11:41:00,
2013-04-22 07:46:00,67.0,66.4,30.03,NW,323,3.0,6.0,98,0.00,,,0.43,Wunderground v.1.15,2013-04-22 11:46:00,
2013-04-22 07:51:00,67.0,66.4,30.03,ENE,69,2.0,5.0,98,0.00,,,0.43,Wunderground v.1.15,2013-04-22 11:51:00,
2013-04-22 07:56:00,67.0,66.4,30.03,ENE,70,4.0,5.0,98,0.00,,,0.43,Wunderground v.1.15,2013-04-22 11:56:00,
2013-04-22 08:01:00,66.9,66.3,30.03,North,359,3.0,5.0,98,0.00,,,0.43,Wunderground v.1.15,2013-04-22 12:01:00,
2013-04-22 08:06:00,67.0,66.4,30.03,North,359,1.0,7.0,98,0.00,,,0.43,Wunderground v.1.15,2013-04-22 12:06:00,
2013-04-22 08:11:00,67.0,66.4,30.04,ENE,57,5.0,5.0,98,0.00,,,0.43,Wunderground v.1.15,2013-04-22 12:11:00,
2013-04-22 08:16:00,67.0,66.4,30.04,NNE,15,4.0,7.0,98,0.00,,,0.43,Wunderground v.1.15,2013-04-22 12:16:00,
2013-04-22 08:21:00,66.9,66.3,30.04,NE,37,2.0,7.0,98,0.00,,,0.43,Wunderground v.1.15,2013-04-22 12:21:00,
2013-04-22 08:26:00,66.9,66.3,30.04,NNE,22,4.0,7.0,98,0.00,,,0.43,Wunderground v.1.15,2013-04-22 12:26:00,
2013-04-22 08:31:00,67.0,66.4,30.04,ENE,68,2.0,4.0,98,0.00,,,0.43,Wunderground v.1.15,2013-04-22 12:31:00,
2013-04-22 08:36:00,67.1,66.5,30.04,NNE,15,3.0,4.0,98,0.00,,,0.43,Wunderground v.1.15,2013-04-22 12:36:00,
2013-04-22 08:41:00,67.1,66.5,30.05,North,349,5.0,5.0,98,0.00,,,0.43,Wunderground v.1.15,2013-04-22 12:41:00,
2013-04-22 08:46:00,67.1,66.5,30.05,NE,52,1.0,5.0,98,0.00,,,0.43,Wunderground v.1.15,2013-04-22 12:46:00,
2013-04-22 08:51:00,67.1,66.5,30.05,NE,47,2.0,4.0,98,0.00,,,0.43,Wunderground v.1.15,2013-04-22 12:51:00,
2013-04-22 08:56:00,67.1,66.5,30.05,NE,52,2.0,8.0,98,0.00,,,0.43,Wunderground v.1.15,2013-04-22 12:56:00,
2013-04-22 09:01:00,67.3,66.7,30.05,NNE,33,2.0,3.0,98,0.00,,,0.43,Wunderground v.1.15,2013-04-22 13:01:00,
2013-04-22 09:06:00,67.4,66.8,30.05,NNE,27,3.0,6.0,98,0.00,,,0.43,Wunderground v.1.15,2013-04-22 13:06:00,
2013-04-22 09:11:00,67.5,66.9,30.06,NNE,18,3.0,5.0,98,0.00,,,0.43,Wunderground v.1.15,2013-04-22 13:11:00,
2013-04-22 09:16:00,67.5,66.6,30.05,ENE,64,2.0,5.0,97,0.00,,,0.43,Wunderground v.1.15,2013-04-22 13:16:00,
2013-04-22 09:21:00,67.7,67.1,30.06,North,356,4.0,6.0,98,0.00,,,0.43,Wunderground v.1.15,2013-04-22 13:21:00,
2013-04-22 09:26:00,67.6,66.7,30.06,NE,56,1.0,8.0,97,0.00,,,0.43,Wunderground v.1.15,2013-04-22 13:26:00,
2013-04-22 09:31:00,67.9,67.0,30.06,NE,47,0.0,2.0,97,0.00,,,0.43,Wunderground v.1.15,2013-04-22 13:31:00,
2013-04-22 09:36:00,68.2,67.6,30.06,ENE,62,1.0,3.0,98,0.00,,,0.43,Wunderground v.1.15,2013-04-22 13:36:00,
2013-04-22 09:41:00,68.2,67.3,30.06,ENE,68,2.0,2.0,97,0.00,,,0.43,Wunderground v.1.15,2013-04-22 13:41:00,
2013-04-22 09:46:00,68.4,67.2,30.06,NNE,32,2.0,4.0,96,0.00,,,0.43,Wunderground v.1.15,2013-04-22 13:46:00,
2013-04-22 09:51:00,68.4,67.2,30.06,North,2,2.0,4.0,96,0.00,,,0.43,Wunderground v.1.15,2013-04-22 13:51:00,
2013-04-22 09:56:00,68.6,67.4,30.06,NE,35,4.0,6.0,96,0.00,,,0.43,Wunderground v.1.15,2013-04-22 13:56:00,
2013-04-22 10:01:00,68.7,67.2,30.07,NE,50,4.0,4.0,95,0.00,,,0.43,Wunderground v.1.15,2013-04-22 14:01:00,
2013-04-22 10:06:00,68.8,67.3,30.07,NNE,22,2.0,5.0,95,0.00,,,0.43,Wunderground v.1.15,2013-04-22 14:06:00,
2013-04-22 10:11:00,69.0,67.5,30.07,North,1,1.0,4.0,95,0.00,,,0.43,Wunderground v.1.15,2013-04-22 14:11:00,
2013-04-22 10:16:00,69.4,68.2,30.07,NE,37,2.0,4.0,96,0.00,,,0.43,Wunderground v.1.15,2013-04-22 14:16:00,
2013-04-22 10:21:00,69.6,68.1,30.07,ENE,61,3.0,3.0,95,0.00,,,0.43,Wunderground v.1.15,2013-04-22 14:21:00,
2013-04-22 10:26:00,69.8,68.3,30.07,NNE,27,4.0,5.0,95,0.00,,,0.43,Wunderground v.1.15,2013-04-22 14:26:00,
2013-04-22 10:31:00,70.2,68.4,30.07,ENE,60,2.0,4.0,94,0.00,,,0.43,Wunderground v.1.15,2013-04-22 14:31:00,
2013-04-22 10:36:00,70.4,68.3,30.07,NE,50,1.0,5.0,93,0.00,,,0.43,Wunderground v.1.15,2013-04-22 14:36:00,
2013-04-22 10:41:00,70.7,68.6,30.07,NNE,27,1.0,5.0,93,0.00,,,0.43,Wunderground v.1.15,2013-04-22 14:41:00,
2013-04-22 10:46:00,70.8,68.7,30.07,NE,47,5.0,7.0,93,0.00,,,0.43,Wunderground v.1.15,2013-04-22 14:46:00,
2013-04-22 10:51:00,70.9,68.8,30.07,NE,55,1.0,5.0,93,0.00,,,0.43,Wunderground v.1.15,2013-04-22 14:51:00,
2013-04-22 10:56:00,71.4,69.3,30.08,ENE,60,1.0,5.0,93,0.00,,,0.43,Wunderground v.1.15,2013-04-22 14:56:00,
2013-04-22 11:01:00,71.6,69.2,30.08,NNE,30,4.0,4.0,92,0.00,,,0.43,Wunderground v.1.15,2013-04-22 15:01:00,
2013-04-22 11:06:00,71.9,69.1,30.08,ENE,58,3.0,6.0,91,0.00,,,0.43,Wunderground v.1.15,2013-04-22 15:06:00,
2013-04-22 11:11:00,72.2,69.4,30.08,NE,46,4.0,5.0,91,0.00,,,0.43,Wunderground v.1.15,2013-04-22 15:11:00,
2013-04-22 11:16:00,72.6,69.5,30.08,NNE,13,7.0,7.0,90,0.00,,,0.43,Wunderground v.1.15,2013-04-22 15:16:00,
2013-04-22 11:21:00,72.6,69.2,30.08,North,357,3.0,5.0,89,0.00,,,0.43,Wunderground v.1.15,2013-04-22 15:21:00,
2013-04-22 11:26:00,72.6,69.2,30.08,NE,53,2.0,6.0,89,0.00,,,0.43,Wunderground v.1.15,2013-04-22 15:26:00,
2013-04-22 11:31:00,72.6,68.8,30.08,North,360,3.0,5.0,88,0.00,,,0.43,Wunderground v.1.15,2013-04-22 15:31:00,
2013-04-22 11:36:00,72.6,69.2,30.08,East,83,2.0,5.0,89,0.00,,,0.43,Wunderground v.1.15,2013-04-22 15:36:00,
2013-04-22 11:41:00,72.7,68.9,30.08,NE,53,3.0,4.0,88,0.00,,,0.43,Wunderground v.1.15,2013-04-22 15:41:00,
2013-04-22 11:46:00,73.1,69.3,30.08,NE,50,3.0,9.0,88,0.00,,,0.43,Wunderground v.1.15,2013-04-22 15:46:00,
2013-04-22 11:51:00,73.5,69.7,30.08,North,2,2.0,3.0,88,0.00,,,0.43,Wunderground v.1.15,2013-04-22 15:51:00,
2013-04-22 11:56:00,73.8,69.7,30.08,NW,324,0.0,6.0,87,0.00,,,0.43,Wunderground v.1.15,2013-04-22 15:56:00,
2013-04-22 12:01:00,73.9,69.8,30.08,NNE,29,4.0,6.0,87,0.00,,,0.43,Wunderground v.1.15,2013-04-22 16:01:00,
2013-04-22 12:06:00,74.0,69.9,30.08,NNE,32,3.0,6.0,87,0.00,,,0.43,Wunderground v.1.15,2013-04-22 16:06:00,
2013-04-22 12:11:00,74.3,69.5,30.08,NE,52,2.0,7.0,85,0.00,,,0.43,Wunderground v.1.15,2013-04-22 16:11:00,
2013-04-22 12:16:00,75.0,70.9,30.07,NNE,17,1.0,7.0,87,0.00,,,0.43,Wunderground v.1.15,2013-04-22 16:16:00,
2013-04-22 12:22:00,75.5,70.0,30.07,SSE,152,0.0,3.0,83,0.00,,,0.43,Wunderground v.1.15,2013-04-22 16:22:00,
2013-04-22 12:27:00,75.6,70.1,30.07,NNE,33,2.0,6.0,83,0.00,,,0.43,Wunderground v.1.15,2013-04-22 16:27:00,
2013-04-22 12:32:00,75.5,69.6,30.07,NNE,17,1.0,6.0,82,0.00,,,0.43,Wunderground v.1.15,2013-04-22 16:32:00,